Time;durP1;ratioP1;P1;durP2;ratioP2;P2;SDS_P1;SDS_P2;PMS_P1;PMS_P2;Temp;Humidity;BMP_temperature;BMP_pressure;BME280_temperature;BME280_humidity;BME280_pressure;Samples;Min_cycle;Max_cycle;Signal;HPM_P1;HPM_P2
2022/03/18 00:00:56;;;;;;;71.55;35.85;;;;;;;;;;5068352;28;20044;-84
2022/03/18 00:03:41;;;;;;;103.75;45.33;;;;;;;;;;5073626;28;20057;-84
2022/03/18 00:06:27;;;;;;;101.75;44.72;;;;;;;;;;5078090;28;20052;-84
2022/03/18 00:09:12;;;;;;;92.45;39.65;;;;;;;;;;5078726;28;20052;-85
2022/03/18 00:11:57;;;;;;;60.50;28.88;;;;;;;;;;5075251;28;20052;-84
2022/03/18 00:14:43;;;;;;;56.00;30.55;;;;;;;;;;5092151;28;20036;-85
2022/03/18 00:17:28;;;;;;;56.08;29.77;;;;;;;;;;5069776;28;20048;-86
2022/03/18 00:20:14;;;;;;;67.45;31.02;;;;;;;;;;5069561;28;20498;-86
2022/03/18 00:23:00;;;;;;;83.88;38.40;;;;;;;;;;5098905;28;20040;-85
2022/03/18 00:25:45;;;;;;;100.68;44.15;;;;;;;;;;5085432;28;20040;-83
2022/03/18 00:28:31;;;;;;;97.28;38.70;;;;;;;;;;5094368;28;20056;-85
2022/03/18 00:31:16;;;;;;;236.50;81.03;;;;;;;;;;5097278;28;20044;-86
2022/03/18 00:34:02;;;;;;;80.03;35.92;;;;;;;;;;5096095;28;20107;-87
2022/03/18 00:36:47;;;;;;;85.05;37.25;;;;;;;;;;5085853;28;20044;-84
2022/03/18 00:39:33;;;;;;;85.32;37.15;;;;;;;;;;5095128;28;20458;-87
2022/03/18 00:42:19;;;;;;;83.80;37.45;;;;;;;;;;5094014;28;20394;-85
2022/03/18 00:45:04;;;;;;;76.72;33.05;;;;;;;;;;5085196;28;20044;-84
2022/03/18 00:53:58;;;;;;;87.10;40.17;;;;;;;;;;5093820;28;20040;-84
2022/03/18 00:56:44;;;;;;;85.88;37.38;;;;;;;;;;5085335;28;20040;-85
2022/03/18 00:59:30;;;;;;;81.00;36.85;;;;;;;;;;5093583;28;20390;-85
2022/03/18 01:02:14;;;;;;;74.22;34.75;;;;;;;;;;5085303;28;20044;-86
2022/03/18 01:04:59;;;;;;;54.30;28.65;;;;;;;;;;5093571;28;20065;-86
2022/03/18 01:07:45;;;;;;;52.88;27.65;;;;;;;;;;5085679;28;20052;-86
2022/03/18 01:10:32;;;;;;;55.67;27.55;;;;;;;;;;5085008;28;20055;-86
2022/03/18 01:13:17;;;;;;;51.90;26.05;;;;;;;;;;5079493;28;20474;-84
2022/03/18 01:16:03;;;;;;;36.80;19.27;;;;;;;;;;5093592;28;20048;-84
2022/03/18 01:18:48;;;;;;;39.72;20.45;;;;;;;;;;5093426;28;20044;-85
2022/03/18 01:21:34;;;;;;;31.23;18.95;;;;;;;;;;5093677;28;20466;-87
2022/03/18 01:24:19;;;;;;;26.58;13.40;;;;;;;;;;5085033;28;20402;-86
2022/03/18 01:27:06;;;;;;;34.55;17.48;;;;;;;;;;5093295;28;20044;-86
2022/03/18 01:29:50;;;;;;;15.90;10.30;;;;;;;;;;5093558;28;20060;-87
2022/03/18 01:32:35;;;;;;;27.17;14.30;;;;;;;;;;5093179;28;20032;-84
2022/03/18 01:35:21;;;;;;;23.60;14.52;;;;;;;;;;5078028;28;20048;-85
2022/03/18 01:38:06;;;;;;;16.35;8.68;;;;;;;;;;5093636;28;20044;-87
2022/03/18 01:40:53;;;;;;;10.88;6.97;;;;;;;;;;5084858;28;20040;-88
2022/03/18 01:43:42;;;;;;;22.60;12.10;;;;;;;;;;5071076;28;20425;-85
2022/03/18 01:46:28;;;;;;;16.83;7.18;;;;;;;;;;5082012;28;20052;-85
2022/03/18 01:49:14;;;;;;;16.88;8.82;;;;;;;;;;5088624;28;20063;-87
2022/03/18 01:52:00;;;;;;;24.95;12.10;;;;;;;;;;5075167;28;20044;-85
2022/03/18 01:54:44;;;;;;;18.63;11.13;;;;;;;;;;5083421;28;20052;-87
2022/03/18 01:57:31;;;;;;;21.75;10.68;;;;;;;;;;5091535;28;20052;-86
2022/03/18 02:00:18;;;;;;;18.20;10.25;;;;;;;;;;5091065;28;20052;-85
2022/03/18 02:03:03;;;;;;;22.73;14.15;;;;;;;;;;5094686;28;20048;-88
2022/03/18 02:05:49;;;;;;;25.40;13.23;;;;;;;;;;5092773;28;20052;-85
2022/03/18 02:08:34;;;;;;;24.95;14.73;;;;;;;;;;5096391;28;20044;-85
2022/03/18 02:11:22;;;;;;;26.75;15.48;;;;;;;;;;5088570;28;20047;-87
2022/03/18 02:14:07;;;;;;;28.08;15.38;;;;;;;;;;5056104;28;20037;-83
2022/03/18 02:16:52;;;;;;;24.15;14.55;;;;;;;;;;5048061;28;20045;-86
2022/03/18 02:19:39;;;;;;;14.07;8.40;;;;;;;;;;5041232;28;20041;-87
2022/03/18 02:22:26;;;;;;;26.95;14.40;;;;;;;;;;5059382;28;20041;-85
2022/03/18 02:25:14;;;;;;;14.98;7.90;;;;;;;;;;5066169;28;20037;-86
2022/03/18 02:28:03;;;;;;;21.50;12.93;;;;;;;;;;5058352;28;20049;-86
2022/03/18 02:30:48;;;;;;;20.70;10.80;;;;;;;;;;5056993;28;20037;-85
2022/03/18 02:33:34;;;;;;;15.32;10.70;;;;;;;;;;5056499;28;20483;-85
2022/03/18 02:36:20;;;;;;;18.58;11.23;;;;;;;;;;5055790;28;20045;-83
2022/03/18 02:39:05;;;;;;;17.55;9.68;;;;;;;;;;5055854;28;20033;-87
2022/03/18 02:41:51;;;;;;;15.40;9.35;;;;;;;;;;5055994;28;20049;-87
2022/03/18 02:44:36;;;;;;;20.05;13.13;;;;;;;;;;5061567;28;20475;-85
2022/03/18 02:47:23;;;;;;;14.35;8.95;;;;;;;;;;5055038;28;20392;-86
2022/03/18 02:50:09;;;;;;;11.30;6.70;;;;;;;;;;5055596;28;20037;-84
2022/03/18 02:52:54;;;;;;;19.95;11.50;;;;;;;;;;5061362;28;20400;-83
2022/03/18 02:55:39;;;;;;;15.52;9.57;;;;;;;;;;5047688;28;20044;-86
2022/03/18 02:58:24;;;;;;;15.32;9.95;;;;;;;;;;5040330;28;20053;-86
2022/03/18 03:01:10;;;;;;;15.82;9.60;;;;;;;;;;5061256;28;20045;-86
2022/03/18 03:03:55;;;;;;;9.75;6.43;;;;;;;;;;5060836;28;20060;-86
2022/03/18 03:09:44;;;;;;;15.13;6.70;;;;;;;;;;5061084;28;20045;-87
2022/03/18 03:12:30;;;;;;;18.55;11.23;;;;;;;;;;5063123;28;20398;-83
2022/03/18 03:15:16;;;;;;;13.35;7.95;;;;;;;;;;5071851;28;20417;-87
2022/03/18 03:18:01;;;;;;;8.98;6.15;;;;;;;;;;5071960;28;20044;-85
2022/03/18 03:20:48;;;;;;;8.55;6.22;;;;;;;;;;5063983;28;20044;-86
2022/03/18 03:23:33;;;;;;;17.90;11.35;;;;;;;;;;5067589;28;20044;-86
2022/03/18 03:26:19;;;;;;;13.77;9.13;;;;;;;;;;5069824;28;20475;-85
2022/03/18 03:29:04;;;;;;;8.93;6.53;;;;;;;;;;5054622;28;20040;-86
2022/03/18 03:31:49;;;;;;;11.07;7.35;;;;;;;;;;5048169;28;20048;-85
2022/03/18 03:34:35;;;;;;;14.63;8.13;;;;;;;;;;5061505;28;20037;-88
2022/03/18 03:37:21;;;;;;;13.23;7.95;;;;;;;;;;5054767;28;20044;-87
2022/03/18 03:40:08;;;;;;;13.25;8.02;;;;;;;;;;5054298;28;20387;-86
2022/03/18 03:42:53;;;;;;;13.18;7.05;;;;;;;;;;5063762;28;20048;-85
2022/03/18 03:45:39;;;;;;;11.93;7.15;;;;;;;;;;5080057;28;20040;-88
2022/03/18 03:48:25;;;;;;;14.10;8.15;;;;;;;;;;5066219;28;20056;-85
2022/03/18 03:51:10;;;;;;;17.70;10.48;;;;;;;;;;5073518;28;20036;-86
2022/03/18 03:53:56;;;;;;;16.48;10.00;;;;;;;;;;5080920;28;20040;-85
2022/03/18 03:56:41;;;;;;;10.57;6.78;;;;;;;;;;5080123;28;20048;-88
2022/03/18 03:59:26;;;;;;;13.50;8.13;;;;;;;;;;5073890;28;20040;-88
2022/03/18 04:02:12;;;;;;;19.48;11.77;;;;;;;;;;5066011;28;20048;-86
2022/03/18 04:04:57;;;;;;;17.92;10.32;;;;;;;;;;5054227;28;20061;-86
2022/03/18 04:07:44;;;;;;;13.07;7.90;;;;;;;;;;5072652;28;20399;-85
2022/03/18 04:10:29;;;;;;;4.85;4.07;;;;;;;;;;5074480;28;20044;-86
2022/03/18 04:13:15;;;;;;;14.07;8.63;;;;;;;;;;5090940;28;20048;-85
2022/03/18 04:16:00;;;;;;;14.27;9.35;;;;;;;;;;5081341;28;20060;-86
2022/03/18 04:18:46;;;;;;;11.75;7.10;;;;;;;;;;5086302;28;20040;-86
2022/03/18 04:21:32;;;;;;;13.23;7.47;;;;;;;;;;5071664;28;20060;-84
2022/03/18 04:24:17;;;;;;;12.30;8.07;;;;;;;;;;5079488;28;20386;-85
2022/03/18 04:27:03;;;;;;;15.35;6.53;;;;;;;;;;5079022;28;20044;-87
2022/03/18 04:29:49;;;;;;;10.27;6.07;;;;;;;;;;5085700;28;20047;-85
2022/03/18 04:32:34;;;;;;;8.48;5.82;;;;;;;;;;5093982;28;20036;-86
2022/03/18 04:35:20;;;;;;;10.48;7.28;;;;;;;;;;5088897;28;20036;-86
2022/03/18 04:38:05;;;;;;;13.93;8.35;;;;;;;;;;5063030;28;20052;-86
2022/03/18 04:40:50;;;;;;;11.35;5.65;;;;;;;;;;5072972;28;20391;-84
2022/03/18 04:43:35;;;;;;;12.15;6.63;;;;;;;;;;5074816;28;20387;-87
2022/03/18 04:46:21;;;;;;;12.05;7.15;;;;;;;;;;5079851;28;20044;-88
2022/03/18 04:49:07;;;;;;;7.68;5.70;;;;;;;;;;5074457;28;20040;-86
2022/03/18 04:51:52;;;;;;;11.85;6.78;;;;;;;;;;5081178;28;20052;-86
2022/03/18 04:54:37;;;;;;;11.07;7.32;;;;;;;;;;5079261;28;20416;-85
2022/03/18 04:57:22;;;;;;;17.65;9.25;;;;;;;;;;5078718;28;20483;-85
2022/03/18 05:00:09;;;;;;;11.18;6.70;;;;;;;;;;5072323;28;20395;-86
2022/03/18 05:02:57;;;;;;;14.38;10.20;;;;;;;;;;5075222;28;20048;-86
2022/03/18 05:05:42;;;;;;;10.95;7.78;;;;;;;;;;5099508;28;20044;-85
2022/03/18 05:08:28;;;;;;;9.00;6.63;;;;;;;;;;5093698;28;20048;-87
2022/03/18 05:11:15;;;;;;;17.73;9.85;;;;;;;;;;5095069;28;20043;-86
2022/03/18 05:14:00;;;;;;;10.50;6.00;;;;;;;;;;5089559;28;20044;-85
2022/03/18 05:16:46;;;;;;;15.90;9.93;;;;;;;;;;5101113;28;20052;-84
2022/03/18 05:19:31;;;;;;;8.45;5.97;;;;;;;;;;5077442;28;20484;-85
2022/03/18 05:22:17;;;;;;;12.98;7.90;;;;;;;;;;5093868;28;20043;-87
2022/03/18 05:25:02;;;;;;;10.73;6.85;;;;;;;;;;5065545;28;20057;-86
2022/03/18 05:27:49;;;;;;;9.50;5.72;;;;;;;;;;5088052;28;20057;-85
2022/03/18 05:30:34;;;;;;;15.90;8.82;;;;;;;;;;5068852;28;20052;-85
2022/03/18 05:33:20;;;;;;;13.13;8.32;;;;;;;;;;5074392;28;20425;-89
2022/03/18 05:36:06;;;;;;;12.80;6.57;;;;;;;;;;5083676;28;20044;-85
2022/03/18 05:38:51;;;;;;;13.57;8.80;;;;;;;;;;5089991;28;20036;-87
2022/03/18 05:41:37;;;;;;;14.30;8.30;;;;;;;;;;5081124;28;20037;-86
2022/03/18 05:44:22;;;;;;;18.95;10.23;;;;;;;;;;5074045;28;20056;-84
2022/03/18 05:47:08;;;;;;;19.83;10.57;;;;;;;;;;5058760;28;20049;-88
2022/03/18 05:49:53;;;;;;;12.90;6.97;;;;;;;;;;5088567;28;20040;-87
2022/03/18 05:52:40;;;;;;;16.70;9.57;;;;;;;;;;5067716;28;20040;-86
2022/03/18 05:55:26;;;;;;;15.23;9.27;;;;;;;;;;5088194;28;20040;-88
2022/03/18 05:58:11;;;;;;;14.43;8.25;;;;;;;;;;5080266;28;20059;-86
2022/03/18 06:00:57;;;;;;;6.90;4.80;;;;;;;;;;5080254;28;20399;-86
2022/03/18 06:03:42;;;;;;;14.07;7.63;;;;;;;;;;5085037;28;20052;-86
2022/03/18 06:06:28;;;;;;;14.10;7.50;;;;;;;;;;5083438;28;20044;-86
2022/03/18 06:12:22;;;;;;;10.77;6.82;;;;;;;;;;5057801;28;20056;-87
2022/03/18 06:15:09;;;;;;;11.70;6.65;;;;;;;;;;5055532;28;20048;-86
2022/03/18 06:17:54;;;;;;;8.13;4.85;;;;;;;;;;5055114;28;20044;-86
2022/03/18 06:20:39;;;;;;;10.63;6.82;;;;;;;;;;5054636;28;20037;-88
2022/03/18 06:23:25;;;;;;;15.40;7.18;;;;;;;;;;5055786;28;20049;-88
2022/03/18 06:26:10;;;;;;;18.13;8.75;;;;;;;;;;5054742;28;20045;-87
2022/03/18 06:28:56;;;;;;;10.27;6.28;;;;;;;;;;5047663;28;20040;-88
2022/03/18 06:36:28;;;;;;;23.00;10.93;;;;;;;;;;5056735;28;20380;-90
2022/03/18 06:39:14;;;;;;;;;;;;;;;;;;5047864;28;20037;-90
2022/03/18 06:46:33;;;;;;;11.80;5.68;;;;;;;;;;5062267;28;20041;-91
2022/03/18 06:49:29;;;;;;;7.70;4.45;;;;;;;;;;5061087;28;20056;-90
2022/03/18 06:57:15;;;;;;;;;;;;;;;;;;5033838;28;20038;-90
2022/03/18 07:00:45;;;;;;;13.07;5.88;;;;;;;;;;5025399;28;19913;-89
2022/03/18 07:03:44;;;;;;;14.57;7.97;;;;;;;;;;5019071;28;20041;-89
2022/03/18 07:06:46;;;;;;;7.93;4.85;;;;;;;;;;5023842;28;20053;-89
2022/03/18 07:14:55;;;;;;;;;;;;;;;;;;;;;
2022/03/18 07:22:24;;;;;;;9.15;5.32;;;;;;;;;;5058145;28;20530;-90
2022/03/18 07:25:10;;;;;;;10.23;6.30;;;;;;;;;;5074689;28;20052;-88
2022/03/18 07:27:56;;;;;;;10.77;6.68;;;;;;;;;;5074258;28;20045;-88
2022/03/18 07:30:44;;;;;;;7.75;4.45;;;;;;;;;;5081438;28;20045;-87
2022/03/18 07:33:29;;;;;;;14.90;8.38;;;;;;;;;;5093442;28;20040;-88
2022/03/18 07:36:14;;;;;;;10.40;6.60;;;;;;;;;;5098221;28;20043;-87
2022/03/18 07:39:02;;;;;;;9.20;5.18;;;;;;;;;;5079651;28;20047;-87
2022/03/18 07:41:58;;;;;;;14.70;7.88;;;;;;;;;;5085711;28;20032;-87
2022/03/18 07:44:43;;;;;;;10.52;6.43;;;;;;;;;;5101228;28;20051;-86
2022/03/18 07:47:47;;;;;;;13.95;6.97;;;;;;;;;;5094957;28;20378;-89
2022/03/18 07:50:46;;;;;;;9.55;5.75;;;;;;;;;;5078580;28;20060;-89
2022/03/18 07:53:36;;;;;;;9.25;6.18;;;;;;;;;;5096176;28;20036;-89
2022/03/18 07:56:27;;;;;;;10.75;6.60;;;;;;;;;;5079689;28;20044;-90
2022/03/18 07:59:14;;;;;;;10.05;6.55;;;;;;;;;;5079009;28;20040;-89
2022/03/18 08:02:04;;;;;;;9.07;6.43;;;;;;;;;;5072164;28;20032;-86
2022/03/18 08:04:51;;;;;;;10.88;7.22;;;;;;;;;;5078850;28;20052;-89
2022/03/18 08:07:37;;;;;;;10.55;6.13;;;;;;;;;;5095428;28;20039;-88
2022/03/18 08:10:24;;;;;;;8.27;4.95;;;;;;;;;;5096902;28;20032;-88
2022/03/18 08:13:09;;;;;;;13.45;7.07;;;;;;;;;;5072426;28;20048;-87
2022/03/18 08:15:55;;;;;;;14.70;6.63;;;;;;;;;;5074161;28;20045;-89
2022/03/18 08:18:40;;;;;;;8.50;5.65;;;;;;;;;;5065408;28;20475;-88
2022/03/18 08:21:26;;;;;;;11.48;7.55;;;;;;;;;;5079246;28;20036;-89
2022/03/18 08:24:12;;;;;;;22.05;8.65;;;;;;;;;;5065796;28;20044;-90
2022/03/18 08:27:00;;;;;;;12.35;7.72;;;;;;;;;;5079154;28;20041;-90
2022/03/18 08:29:47;;;;;;;9.63;6.45;;;;;;;;;;5065592;28;20048;-89
2022/03/18 08:32:33;;;;;;;8.93;5.03;;;;;;;;;;5073457;28;20395;-89
2022/03/18 08:35:19;;;;;;;9.02;5.43;;;;;;;;;;5079689;28;20048;-89
2022/03/18 08:38:07;;;;;;;10.23;6.55;;;;;;;;;;5081240;28;20055;-90
2022/03/18 08:40:53;;;;;;;11.38;6.55;;;;;;;;;;5074610;28;20498;-90
2022/03/18 08:43:38;;;;;;;10.63;7.43;;;;;;;;;;5075083;28;20044;-89
2022/03/18 08:46:24;;;;;;;12.32;7.63;;;;;;;;;;5075029;28;20044;-88
2022/03/18 08:49:09;;;;;;;11.05;5.68;;;;;;;;;;5060022;28;20048;-88
2022/03/18 08:51:57;;;;;;;12.27;6.22;;;;;;;;;;5073508;28;20045;-90
2022/03/18 08:54:43;;;;;;;21.50;11.45;;;;;;;;;;5069970;28;20036;-89
2022/03/18 08:57:31;;;;;;;16.30;7.95;;;;;;;;;;5072178;28;20044;-88
2022/03/18 09:00:18;;;;;;;14.13;7.95;;;;;;;;;;5075520;28;20032;-88
2022/03/18 09:03:04;;;;;;;15.32;7.43;;;;;;;;;;5063430;28;20048;-89
2022/03/18 09:05:49;;;;;;;18.00;10.40;;;;;;;;;;5056323;28;20033;-87
2022/03/18 09:08:33;;;;;;;13.75;8.77;;;;;;;;;;5048737;28;20045;-86
2022/03/18 09:11:19;;;;;;;13.65;7.85;;;;;;;;;;5070237;28;20036;-86
2022/03/18 09:14:05;;;;;;;11.45;6.97;;;;;;;;;;5072297;28;20036;-84
2022/03/18 09:16:50;;;;;;;22.50;10.88;;;;;;;;;;5080016;28;20399;-86
2022/03/18 09:19:37;;;;;;;21.17;8.18;;;;;;;;;;5061510;28;20036;-86
2022/03/18 09:22:23;;;;;;;9.73;5.70;;;;;;;;;;5060460;28;20036;-85
2022/03/18 09:25:09;;;;;;;23.52;9.90;;;;;;;;;;5088409;28;20052;-86
2022/03/18 09:27:55;;;;;;;30.73;7.53;;;;;;;;;;5088766;28;20383;-86
2022/03/18 09:30:41;;;;;;;9.43;4.80;;;;;;;;;;5077001;28;20033;-88
2022/03/18 09:33:27;;;;;;;11.60;7.45;;;;;;;;;;5076150;28;20036;-89
2022/03/18 09:36:18;;;;;;;12.60;7.85;;;;;;;;;;5082597;28;20049;-86
2022/03/18 09:39:37;;;;;;;12.85;7.95;;;;;;;;;;5076882;28;20052;-88
2022/03/18 09:42:28;;;;;;;7.70;4.10;;;;;;;;;;5045778;28;20040;-87
2022/03/18 09:45:16;;;;;;;11.63;5.93;;;;;;;;;;5074476;28;20048;-89
2022/03/18 09:48:12;;;;;;;7.50;5.32;;;;;;;;;;5073148;28;20056;-88
2022/03/18 09:51:41;;;;;;;7.07;5.10;;;;;;;;;;5067982;28;20045;-89
2022/03/18 09:55:06;;;;;;;7.95;5.30;;;;;;;;;;5034680;28;20630;-87
2022/03/18 10:03:00;;;;;;;;;;;;;;;;;;;;;
2022/03/18 10:06:23;;;;;;;13.93;7.90;;;;;;;;;;5029612;28;20484;-87
2022/03/18 10:13:53;;;;;;;10.60;6.63;;;;;;;;;;5042914;28;20045;-89
2022/03/18 10:16:41;;;;;;;8.02;5.32;;;;;;;;;;5055729;28;20053;-86
2022/03/18 10:19:57;;;;;;;9.73;6.53;;;;;;;;;;5031864;28;20049;-90
2022/03/18 10:23:16;;;;;;;8.38;5.22;;;;;;;;;;5028164;28;20048;-90
2022/03/18 10:47:09;;;;;;;18.65;8.50;;;;;;;;;;5004822;28;20037;-88
2022/03/18 10:58:17;;;;;;;11.13;6.72;;;;;;;;;;4952016;29;20039;-89
2022/03/18 11:06:12;;;;;;;13.07;8.10;;;;;;;;;;5020375;28;20041;-88
2022/03/18 11:09:00;;;;;;;12.18;5.60;;;;;;;;;;5018547;28;20042;-87
2022/03/18 11:11:45;;;;;;;7.43;4.20;;;;;;;;;;5031223;28;20040;-86
2022/03/18 11:14:37;;;;;;;;;;;;;;;;;;5074804;28;20491;-84
2022/03/18 11:17:27;;;;;;;7.10;4.93;;;;;;;;;;5074212;28;19916;-87
2022/03/18 11:20:17;;;;;;;9.98;5.18;;;;;;;;;;5082460;28;20040;-86
2022/03/18 11:23:02;;;;;;;11.77;7.57;;;;;;;;;;5079907;28;20414;-87
2022/03/18 11:26:05;;;;;;;5.38;3.95;;;;;;;;;;5095266;28;20482;-88
2022/03/18 11:29:11;;;;;;;7.72;4.95;;;;;;;;;;5080096;28;20386;-87
2022/03/18 11:32:09;;;;;;;8.60;6.03;;;;;;;;;;5095222;28;20487;-88
2022/03/18 11:35:00;;;;;;;9.70;6.25;;;;;;;;;;5094827;28;20273;-87
2022/03/18 11:38:14;;;;;;;10.82;6.95;;;;;;;;;;5094707;28;20040;-87
2022/03/18 11:41:05;;;;;;;9.52;6.28;;;;;;;;;;5072362;28;20036;-88
2022/03/18 11:43:52;;;;;;;18.73;11.23;;;;;;;;;;5094817;28;20048;-86
2022/03/18 11:46:41;;;;;;;19.15;11.27;;;;;;;;;;5085788;28;20040;-87
2022/03/18 11:49:40;;;;;;;15.68;8.57;;;;;;;;;;5086033;28;20040;-86
2022/03/18 11:52:55;;;;;;;13.10;6.00;;;;;;;;;;5094208;28;20036;-88
2022/03/18 11:55:44;;;;;;;5.85;3.83;;;;;;;;;;5094163;28;20036;-87
2022/03/18 11:58:30;;;;;;;12.63;7.15;;;;;;;;;;5094504;28;20052;-87
2022/03/18 12:02:01;;;;;;;8.63;5.53;;;;;;;;;;5094617;28;20036;-89
2022/03/18 12:04:46;;;;;;;18.42;7.50;;;;;;;;;;4985763;28;20050;-88
2022/03/18 12:07:51;;;;;;;9.82;6.55;;;;;;;;;;5088336;28;20044;-86
2022/03/18 12:10:41;;;;;;;10.80;7.05;;;;;;;;;;5094252;28;20044;-88
2022/03/18 12:13:26;;;;;;;12.23;7.28;;;;;;;;;;5093833;28;20048;-87
2022/03/18 12:16:12;;;;;;;15.25;8.10;;;;;;;;;;5091024;28;20059;-87
2022/03/18 12:18:59;;;;;;;9.68;6.40;;;;;;;;;;5088116;28;20048;-86
2022/03/18 12:21:44;;;;;;;5.68;4.22;;;;;;;;;;5088319;28;20044;-86
2022/03/18 12:24:29;;;;;;;15.07;7.75;;;;;;;;;;5093839;28;20394;-86
2022/03/18 12:27:20;;;;;;;14.90;7.72;;;;;;;;;;5071811;28;20048;-86
2022/03/18 12:30:08;;;;;;;10.48;6.55;;;;;;;;;;5093563;28;20047;-87
2022/03/18 12:33:06;;;;;;;10.63;6.40;;;;;;;;;;5085460;28;20040;-86
2022/03/18 12:35:50;;;;;;;8.70;5.47;;;;;;;;;;5070852;28;20051;-86
2022/03/18 12:38:36;;;;;;;15.13;8.18;;;;;;;;;;5078588;28;20044;-86
2022/03/18 12:41:22;;;;;;;12.15;7.63;;;;;;;;;;5093240;28;20052;-86
2022/03/18 12:44:11;;;;;;;10.57;7.47;;;;;;;;;;5099885;28;20040;-85
2022/03/18 12:47:00;;;;;;;7.25;4.38;;;;;;;;;;5082683;28;20036;-86
2022/03/18 12:49:46;;;;;;;11.82;6.22;;;;;;;;;;5089235;28;20048;-86
2022/03/18 12:52:31;;;;;;;8.68;5.85;;;;;;;;;;5074348;28;20033;-87
2022/03/18 12:55:22;;;;;;;10.20;6.97;;;;;;;;;;5083090;28;20056;-85
2022/03/18 12:58:12;;;;;;;15.77;8.75;;;;;;;;;;5068216;28;20040;-86
2022/03/18 13:01:01;;;;;;;12.07;6.70;;;;;;;;;;5081976;28;20036;-87
2022/03/18 13:03:48;;;;;;;12.20;6.90;;;;;;;;;;5085940;28;20036;-88
2022/03/18 13:06:35;;;;;;;15.00;8.50;;;;;;;;;;5084690;28;20044;-88
2022/03/18 13:09:21;;;;;;;17.13;11.02;;;;;;;;;;5104419;28;20044;-88
2022/03/18 13:12:25;;;;;;;12.65;6.97;;;;;;;;;;5098216;28;20040;-88
2022/03/18 13:15:15;;;;;;;13.20;8.60;;;;;;;;;;5079814;28;20040;-87
2022/03/18 13:18:12;;;;;;;10.35;6.50;;;;;;;;;;5080799;28;20048;-88
2022/03/18 13:20:59;;;;;;;11.00;5.88;;;;;;;;;;5083392;28;20478;-85
2022/03/18 13:23:49;;;;;;;8.52;4.55;;;;;;;;;;5073994;28;20036;-84
2022/03/18 13:26:35;;;;;;;7.18;4.53;;;;;;;;;;5065791;28;20045;-87
2022/03/18 13:32:50;;;;;;;10.68;6.30;;;;;;;;;;5077316;28;20044;-88
2022/03/18 13:35:49;;;;;;;6.85;3.55;;;;;;;;;;5073541;28;20048;-86
2022/03/18 13:38:36;;;;;;;11.45;6.93;;;;;;;;;;5072937;28;20052;-86
2022/03/18 13:41:21;;;;;;;15.40;8.07;;;;;;;;;;5070213;28;20045;-86
2022/03/18 13:44:06;;;;;;;20.90;11.05;;;;;;;;;;5076868;28;20037;-87
2022/03/18 13:46:59;;;;;;;29.85;17.30;;;;;;;;;;5089193;28;20486;-86
2022/03/18 13:50:01;;;;;;;43.13;25.50;;;;;;;;;;5080176;28;20514;-86
2022/03/18 13:52:48;;;;;;;17.33;9.60;;;;;;;;;;5097267;28;20051;-86
2022/03/18 13:55:34;;;;;;;22.02;13.85;;;;;;;;;;5096895;28;20044;-86
2022/03/18 13:58:32;;;;;;;18.15;10.90;;;;;;;;;;5088775;28;20040;-88
2022/03/18 14:01:18;;;;;;;24.52;13.48;;;;;;;;;;5085499;28;20044;-86
2022/03/18 14:04:04;;;;;;;24.08;12.73;;;;;;;;;;5077345;28;20052;-87
2022/03/18 14:06:59;;;;;;;10.88;6.30;;;;;;;;;;5087628;28;20047;-86
2022/03/18 14:09:56;;;;;;;14.40;7.85;;;;;;;;;;5087717;28;20048;-88
2022/03/18 14:13:05;;;;;;;11.63;6.30;;;;;;;;;;5093621;28;20044;-86
2022/03/18 14:15:51;;;;;;;13.30;8.73;;;;;;;;;;5083670;28;20040;-86
2022/03/18 14:18:41;;;;;;;15.93;10.68;;;;;;;;;;5083288;28;20052;-86
2022/03/18 14:21:37;;;;;;;36.10;20.02;;;;;;;;;;5076777;28;20036;-87
2022/03/18 14:24:23;;;;;;;33.35;21.70;;;;;;;;;;5088858;28;20391;-86
2022/03/18 14:27:13;;;;;;;22.55;15.05;;;;;;;;;;5084974;28;20041;-87
2022/03/18 14:30:06;;;;;;;17.90;10.27;;;;;;;;;;5092385;28;20395;-87
2022/03/18 14:32:54;;;;;;;23.23;15.05;;;;;;;;;;5067432;28;20056;-85
2022/03/18 14:35:40;;;;;;;16.00;10.38;;;;;;;;;;5081744;28;20044;-88
2022/03/18 14:39:04;;;;;;;34.95;18.80;;;;;;;;;;5090447;28;20052;-87
2022/03/18 14:42:13;;;;;;;11.40;7.35;;;;;;;;;;5086145;28;20051;-88
2022/03/18 14:45:32;;;;;;;13.00;7.85;;;;;;;;;;5076273;28;20416;-87
2022/03/18 14:48:52;;;;;;;;;;;;;;;;;;;;;
2022/03/18 14:51:55;;;;;;;55.55;32.40;;;;;;;;;;5093763;28;20048;-88
2022/03/18 14:57:44;;;;;;;23.83;14.07;;;;;;;;;;5094827;28;20036;-88
2022/03/18 15:00:46;;;;;;;30.27;20.63;;;;;;;;;;5080405;28;20039;-88
2022/03/18 15:03:32;;;;;;;27.48;17.73;;;;;;;;;;5077132;28;20048;-86
2022/03/18 15:06:24;;;;;;;16.70;11.60;;;;;;;;;;5074402;28;20048;-86
2022/03/18 15:09:19;;;;;;;25.10;14.40;;;;;;;;;;5075265;28;20048;-87
2022/03/18 15:12:05;;;;;;;20.42;10.02;;;;;;;;;;5074777;28;20037;-87
2022/03/18 15:14:55;;;;;;;19.48;12.10;;;;;;;;;;5061271;28;20459;-86
2022/03/18 15:17:41;;;;;;;29.38;15.32;;;;;;;;;;5085934;28;20044;-87
2022/03/18 15:20:30;;;;;;;17.58;10.52;;;;;;;;;;5096855;28;20044;-88
2022/03/18 15:23:17;;;;;;;19.58;12.40;;;;;;;;;;5100314;28;20048;-87
2022/03/18 15:26:05;;;;;;;34.72;18.13;;;;;;;;;;5083856;28;20052;-88
2022/03/18 15:29:15;;;;;;;36.80;20.83;;;;;;;;;;5070174;28;20040;-89
2022/03/18 15:32:36;;;;;;;13.25;6.53;;;;;;;;;;5080741;28;20036;-92
2022/03/18 15:36:41;;;;;;;;;;;;;;;;;;;;;
2022/03/18 15:52:37;;;;;;;24.58;9.57;;;;;;;;;;4986766;28;20050;-90
2022/03/18 15:55:38;;;;;;;32.92;18.13;;;;;;;;;;5045884;28;20053;-89
2022/03/18 15:58:26;;;;;;;13.43;6.70;;;;;;;;;;5064939;28;20052;-86
2022/03/18 16:01:19;;;;;;;19.30;9.43;;;;;;;;;;5066015;28;20044;-89
2022/03/18 16:04:05;;;;;;;14.30;8.70;;;;;;;;;;5077722;28;20048;-89
2022/03/18 16:06:51;;;;;;;15.10;8.57;;;;;;;;;;5093477;28;20048;-86
2022/03/18 16:09:41;;;;;;;22.27;10.70;;;;;;;;;;5067115;28;20036;-88
2022/03/18 16:12:30;;;;;;;28.42;11.73;;;;;;;;;;5072553;28;20036;-87
2022/03/18 16:15:16;;;;;;;23.48;12.80;;;;;;;;;;5090385;28;20048;-86
2022/03/18 16:18:01;;;;;;;32.20;16.17;;;;;;;;;;5071490;28;20048;-87
2022/03/18 16:20:47;;;;;;;53.88;24.98;;;;;;;;;;5100677;28;20047;-86
2022/03/18 16:23:33;;;;;;;54.45;23.00;;;;;;;;;;5084545;28;20048;-85
2022/03/18 16:26:22;;;;;;;55.70;26.27;;;;;;;;;;5100644;28;20048;-84
2022/03/18 16:29:14;;;;;;;51.70;27.65;;;;;;;;;;5078820;28;20036;-85
2022/03/18 16:32:03;;;;;;;55.47;27.35;;;;;;;;;;5070982;28;20052;-85
2022/03/18 16:34:48;;;;;;;55.65;26.75;;;;;;;;;;5078850;28;20048;-86
2022/03/18 16:37:33;;;;;;;74.82;35.50;;;;;;;;;;5085831;28;20047;-86
2022/03/18 16:40:19;;;;;;;102.75;43.67;;;;;;;;;;5082208;28;20040;-84
2022/03/18 16:43:04;;;;;;;52.25;20.55;;;;;;;;;;5097536;28;20048;-86
2022/03/18 16:51:57;;;;;;;40.28;23.17;;;;;;;;;;5094835;28;20048;-85
2022/03/18 16:54:46;;;;;;;53.63;28.05;;;;;;;;;;5100054;28;20471;-86
2022/03/18 16:57:34;;;;;;;54.72;28.38;;;;;;;;;;5094081;28;20036;-84
2022/03/18 17:00:23;;;;;;;65.40;33.15;;;;;;;;;;5093828;28;20044;-85
2022/03/18 17:03:09;;;;;;;59.38;30.50;;;;;;;;;;5100431;28;20055;-85
2022/03/18 17:05:55;;;;;;;47.72;24.23;;;;;;;;;;5085486;28;20047;-84
2022/03/18 17:08:41;;;;;;;34.67;18.33;;;;;;;;;;5093552;28;20390;-86
2022/03/18 17:11:26;;;;;;;33.42;17.55;;;;;;;;;;5094225;28;20036;-85
2022/03/18 17:14:13;;;;;;;125.25;59.97;;;;;;;;;;5097924;28;20060;-86
2022/03/18 17:16:58;;;;;;;137.90;71.75;;;;;;;;;;5092402;28;20048;-85
2022/03/18 17:19:44;;;;;;;127.38;57.30;;;;;;;;;;5110909;28;20044;-86
2022/03/18 17:22:29;;;;;;;252.32;115.13;;;;;;;;;;5103552;28;20048;-85
2022/03/18 17:25:15;;;;;;;190.38;89.45;;;;;;;;;;5110409;28;20046;-86
2022/03/18 17:28:02;;;;;;;192.77;86.40;;;;;;;;;;5103965;28;20048;-87
2022/03/18 17:30:48;;;;;;;191.05;85.97;;;;;;;;;;5104017;28;20048;-85
2022/03/18 17:33:35;;;;;;;199.45;90.53;;;;;;;;;;5079321;28;20044;-83
2022/03/18 17:36:21;;;;;;;304.90;143.25;;;;;;;;;;5096911;28;20048;-84
2022/03/18 17:39:06;;;;;;;268.02;126.68;;;;;;;;;;5088690;28;20044;-83
2022/03/18 17:41:52;;;;;;;257.90;117.53;;;;;;;;;;5088389;28;20051;-83
2022/03/18 17:44:38;;;;;;;273.42;108.82;;;;;;;;;;5096947;28;20215;-83
2022/03/18 17:47:23;;;;;;;322.00;117.53;;;;;;;;;;5096870;28;20037;-84
2022/03/18 17:50:10;;;;;;;261.75;105.70;;;;;;;;;;5095581;28;20403;-88
2022/03/18 17:52:56;;;;;;;266.55;115.65;;;;;;;;;;5094916;28;20040;-89
2022/03/18 17:55:43;;;;;;;201.10;96.63;;;;;;;;;;5086178;28;20047;-87
2022/03/18 17:58:28;;;;;;;188.70;86.00;;;;;;;;;;5102465;28;20048;-87
2022/03/18 18:01:14;;;;;;;162.52;70.57;;;;;;;;;;5095404;28;20390;-88
2022/03/18 18:04:04;;;;;;;159.13;69.15;;;;;;;;;;5087096;28;20044;-87
2022/03/18 18:06:54;;;;;;;199.27;88.55;;;;;;;;;;5073688;28;20040;-87
2022/03/18 18:09:40;;;;;;;128.15;60.85;;;;;;;;;;5074477;28;20048;-87
2022/03/18 18:12:25;;;;;;;337.75;134.65;;;;;;;;;;5073682;28;20048;-88
2022/03/18 18:15:11;;;;;;;253.90;103.97;;;;;;;;;;5061508;28;20067;-89
2022/03/18 18:17:56;;;;;;;169.95;70.53;;;;;;;;;;5067222;28;20410;-88
2022/03/18 18:23:50;;;;;;;307.08;133.40;;;;;;;;;;5076110;28;20041;-88
2022/03/18 18:26:50;;;;;;;188.63;79.15;;;;;;;;;;5076413;28;20048;-89
2022/03/18 18:29:44;;;;;;;243.65;105.07;;;;;;;;;;5069834;28;20052;-89